HAZ8209 ZUUU-VTSP
Flight info
| Callsign | HAZ8209 |
|---|---|
| Flight time | 3h 17m |
| Altitude | 38100 |
| Route | LUVEN6N LUVEN G212 SGM A581 ELASU/K0904S1220 A581 BIDRU/K0904S1190 A581 SAGAG/N0485F400 B218 LPB B346 BKK Y8 MOTNA G458 MENEX Y8 SAVSA SAVSA1C |
| Aircraft | A359/H-SDE2E3GHIJ3J4J5LM1ORWXY/LB1D1 |
Departure
| Time | 2026-05-07 20:22 |
|---|---|
| Airport | Chengdu Shuangliu International Airport (ZUUU) |
Arrival
| Time | 2026-05-07 23:40 |
|---|---|
| Airport | Phuket International Airport (VTSP) |
| Time | Latitude | Longitude | Altitude | Speed | Heading |
|---|---|---|---|---|---|
| 2026-05-07 20:00 | 30.57086 | 103.94877 | 1653 ft | 0 kts | 159° |
| 2026-05-07 20:10 | 30.57114 | 103.94866 | 1653 ft | 4 kts | 159° |
| 2026-05-07 20:10 | 30.57135 | 103.94856 | 1653 ft | 4 kts | 149° |
| 2026-05-07 20:10 | 30.57156 | 103.94836 | 1653 ft | 4 kts | 122° |
| 2026-05-07 20:10 | 30.57163 | 103.94809 | 1653 ft | 4 kts | 80° |
| 2026-05-07 20:11 | 30.57153 | 103.94782 | 1653 ft | 4 kts | 48° |
| 2026-05-07 20:11 | 30.57133 | 103.94763 | 1653 ft | 4 kts | 22° |
| 2026-05-07 20:11 | 30.57110 | 103.94752 | 1653 ft | 1 kts | 22° |
| 2026-05-07 20:15 | 30.57111 | 103.94753 | 1653 ft | 1 kts | 22° |
| 2026-05-07 20:15 | 30.57160 | 103.94776 | 1653 ft | 13 kts | 21° |
| 2026-05-07 20:16 | 30.57252 | 103.94751 | 1653 ft | 13 kts | 346° |
| 2026-05-07 20:16 | 30.57338 | 103.94773 | 1653 ft | 13 kts | 21° |
| 2026-05-07 20:16 | 30.57428 | 103.94813 | 1653 ft | 14 kts | 21° |
| 2026-05-07 20:16 | 30.57525 | 103.94858 | 1653 ft | 16 kts | 22° |
| 2026-05-07 20:17 | 30.57630 | 103.94909 | 1653 ft | 17 kts | 22° |
| 2026-05-07 20:17 | 30.57733 | 103.94956 | 1653 ft | 1 kts | 20° |
| 2026-05-07 20:17 | 30.57779 | 103.94977 | 1653 ft | 13 kts | 22° |
| 2026-05-07 20:18 | 30.57894 | 103.95020 | 1653 ft | 18 kts | 353° |
| 2026-05-07 20:18 | 30.58005 | 103.94997 | 1653 ft | 16 kts | 16° |
| 2026-05-07 20:18 | 30.58109 | 103.95044 | 1653 ft | 17 kts | 21° |
| 2026-05-07 20:18 | 30.58221 | 103.95096 | 1653 ft | 18 kts | 22° |
| 2026-05-07 20:19 | 30.58339 | 103.95151 | 1653 ft | 19 kts | 22° |
| 2026-05-07 20:19 | 30.58464 | 103.95210 | 1653 ft | 20 kts | 22° |
| 2026-05-07 20:19 | 30.58594 | 103.95269 | 1653 ft | 20 kts | 19° |
| 2026-05-07 20:19 | 30.58726 | 103.95330 | 1653 ft | 21 kts | 22° |
| 2026-05-07 20:20 | 30.58862 | 103.95394 | 1654 ft | 21 kts | 22° |
| 2026-05-07 20:20 | 30.59003 | 103.95460 | 1654 ft | 22 kts | 22° |
| 2026-05-07 20:20 | 30.59149 | 103.95527 | 1654 ft | 23 kts | 21° |
| 2026-05-07 20:20 | 30.59294 | 103.95537 | 1653 ft | 21 kts | 313° |
| 2026-05-07 20:21 | 30.59335 | 103.95410 | 1653 ft | 9 kts | 262° |
| 2026-05-07 20:21 | 30.59313 | 103.95385 | 1653 ft | 5 kts | 216° |
| 2026-05-07 20:21 | 30.59277 | 103.95364 | 1654 ft | 0 kts | 202° |
| 2026-05-07 20:22 | 30.59073 | 103.95268 | 1663 ft | 67 kts | 202° |
| 2026-05-07 20:22 | 30.58444 | 103.94975 | 1652 ft | 127 kts | 202° |
| 2026-05-07 20:22 | 30.57458 | 103.94519 | 1735 ft | 167 kts | 202° |
| 2026-05-07 20:22 | 30.56391 | 103.94013 | 2367 ft | 167 kts | 202° |
| 2026-05-07 20:23 | 30.55298 | 103.93498 | 2862 ft | 177 kts | 201° |
| 2026-05-07 20:23 | 30.54098 | 103.92940 | 3091 ft | 200 kts | 201° |
| 2026-05-07 20:23 | 30.52689 | 103.92288 | 3284 ft | 228 kts | 201° |
| 2026-05-07 20:23 | 30.51139 | 103.91569 | 3546 ft | 252 kts | 201° |
| 2026-05-07 20:24 | 30.49455 | 103.90788 | 3998 ft | 266 kts | 201° |
| 2026-05-07 20:24 | 30.47703 | 103.89975 | 4688 ft | 272 kts | 200° |
| 2026-05-07 20:24 | 30.45932 | 103.89152 | 5403 ft | 276 kts | 200° |
| 2026-05-07 20:24 | 30.44135 | 103.88319 | 6100 ft | 282 kts | 201° |
| 2026-05-07 20:25 | 30.42298 | 103.87468 | 6829 ft | 287 kts | 201° |
| 2026-05-07 20:25 | 30.40424 | 103.86599 | 7603 ft | 290 kts | 201° |
| 2026-05-07 20:25 | 30.38551 | 103.85731 | 8450 ft | 292 kts | 201° |
| 2026-05-07 20:25 | 30.36681 | 103.84863 | 9429 ft | 288 kts | 201° |
| 2026-05-07 20:26 | 30.34808 | 103.83996 | 10245 ft | 292 kts | 201° |
| 2026-05-07 20:26 | 30.32880 | 103.83105 | 10699 ft | 309 kts | 201° |
| 2026-05-07 20:26 | 30.30809 | 103.82148 | 11009 ft | 329 kts | 201° |
| 2026-05-07 20:26 | 30.28623 | 103.81137 | 11307 ft | 348 kts | 201° |
| 2026-05-07 20:27 | 30.26323 | 103.80125 | 11809 ft | 358 kts | 198° |
| 2026-05-07 20:27 | 30.23875 | 103.79540 | 12524 ft | 362 kts | 185° |
| 2026-05-07 20:27 | 30.21345 | 103.79688 | 13189 ft | 368 kts | 169° |
| 2026-05-07 20:27 | 30.18902 | 103.80617 | 13856 ft | 373 kts | 156° |
| 2026-05-07 20:28 | 30.16554 | 103.81944 | 14449 ft | 378 kts | 154° |
| 2026-05-07 20:28 | 30.14186 | 103.83343 | 14997 ft | 383 kts | 155° |
| 2026-05-07 20:28 | 30.11805 | 103.84743 | 15549 ft | 388 kts | 156° |
| 2026-05-07 20:28 | 30.09383 | 103.86158 | 16088 ft | 392 kts | 156° |
| 2026-05-07 20:29 | 30.06927 | 103.87587 | 16576 ft | 397 kts | 157° |
| 2026-05-07 20:29 | 30.04445 | 103.89039 | 17071 ft | 402 kts | 157° |
| 2026-05-07 20:29 | 30.01898 | 103.90527 | 17603 ft | 406 kts | 158° |
| 2026-05-07 20:29 | 29.99405 | 103.91982 | 18054 ft | 411 kts | 158° |
| 2026-05-07 20:30 | 29.96837 | 103.93479 | 18504 ft | 415 kts | 158° |
| 2026-05-07 20:30 | 29.94256 | 103.94984 | 18922 ft | 418 kts | 158° |
| 2026-05-07 20:30 | 29.91634 | 103.96511 | 19298 ft | 423 kts | 159° |
| 2026-05-07 20:30 | 29.89002 | 103.98042 | 19679 ft | 427 kts | 159° |
| 2026-05-07 20:31 | 29.86338 | 103.99592 | 20119 ft | 430 kts | 159° |
| 2026-05-07 20:31 | 29.83658 | 104.01151 | 20571 ft | 433 kts | 159° |
| 2026-05-07 20:31 | 29.80966 | 104.02710 | 20996 ft | 435 kts | 160° |
| 2026-05-07 20:31 | 29.78139 | 104.04039 | 21432 ft | 430 kts | 169° |
| 2026-05-07 20:32 | 29.75263 | 104.04657 | 21863 ft | 422 kts | 182° |
| 2026-05-07 20:32 | 29.72346 | 104.04686 | 22309 ft | 420 kts | 188° |
| 2026-05-07 20:32 | 29.69419 | 104.04565 | 22763 ft | 422 kts | 189° |
| 2026-05-07 20:32 | 29.66474 | 104.04432 | 23204 ft | 424 kts | 189° |
| 2026-05-07 20:33 | 29.63517 | 104.04304 | 23611 ft | 428 kts | 189° |
| 2026-05-07 20:33 | 29.60528 | 104.04179 | 23947 ft | 431 kts | 189° |
| 2026-05-07 20:33 | 29.57518 | 104.04057 | 24351 ft | 433 kts | 189° |
| 2026-05-07 20:33 | 29.54496 | 104.03938 | 24769 ft | 435 kts | 189° |
| 2026-05-07 20:34 | 29.51472 | 104.03819 | 25204 ft | 437 kts | 189° |
| 2026-05-07 20:34 | 29.48388 | 104.03698 | 25652 ft | 439 kts | 189° |
| 2026-05-07 20:34 | 29.45333 | 104.03579 | 26099 ft | 440 kts | 189° |
| 2026-05-07 20:34 | 29.42254 | 104.03458 | 26539 ft | 443 kts | 189° |
| 2026-05-07 20:35 | 29.39212 | 104.03340 | 26961 ft | 445 kts | 189° |
| 2026-05-07 20:35 | 29.36067 | 104.03258 | 27373 ft | 449 kts | 187° |
| 2026-05-07 20:35 | 29.32920 | 104.03276 | 27710 ft | 455 kts | 186° |
| 2026-05-07 20:35 | 29.29788 | 104.03344 | 28099 ft | 458 kts | 186° |
| 2026-05-07 20:36 | 29.26551 | 104.03429 | 28511 ft | 460 kts | 186° |
| 2026-05-07 20:36 | 29.23342 | 104.03509 | 28929 ft | 462 kts | 186° |
| 2026-05-07 20:36 | 29.20124 | 104.03579 | 29325 ft | 464 kts | 186° |
| 2026-05-07 20:36 | 29.16923 | 104.03637 | 29702 ft | 466 kts | 186° |
| 2026-05-07 20:37 | 29.13668 | 104.03688 | 30080 ft | 469 kts | 186° |
| 2026-05-07 20:37 | 29.10363 | 104.03735 | 30411 ft | 471 kts | 186° |
| 2026-05-07 20:37 | 29.07076 | 104.03780 | 30691 ft | 473 kts | 187° |
| 2026-05-07 20:37 | 29.03818 | 104.03824 | 30973 ft | 476 kts | 187° |
| 2026-05-07 20:38 | 29.00497 | 104.03868 | 31263 ft | 478 kts | 187° |
| 2026-05-07 20:38 | 28.97156 | 104.03914 | 31544 ft | 480 kts | 187° |
| 2026-05-07 20:38 | 28.93815 | 104.03961 | 31832 ft | 483 kts | 187° |
| 2026-05-07 20:38 | 28.90450 | 104.04008 | 32107 ft | 485 kts | 187° |
| 2026-05-07 20:39 | 28.87060 | 104.04055 | 32329 ft | 486 kts | 187° |
| 2026-05-07 20:39 | 28.83674 | 104.04096 | 32557 ft | 488 kts | 187° |
| 2026-05-07 20:39 | 28.80278 | 104.04145 | 32829 ft | 489 kts | 187° |
| 2026-05-07 20:39 | 28.76874 | 104.04195 | 33149 ft | 489 kts | 187° |
| 2026-05-07 20:40 | 28.73478 | 104.04243 | 33479 ft | 489 kts | 187° |
| 2026-05-07 20:40 | 28.66651 | 104.04332 | 33849 ft | 490 kts | 187° |
| 2026-05-07 20:41 | 28.59911 | 104.03924 | 33997 ft | 478 kts | 198° |
| 2026-05-07 20:41 | 28.56724 | 104.02989 | 34313 ft | 467 kts | 206° |
| 2026-05-07 20:41 | 28.53771 | 104.01594 | 34666 ft | 455 kts | 213° |
| 2026-05-07 20:41 | 28.51037 | 103.99884 | 34955 ft | 451 kts | 217° |
| 2026-05-07 20:42 | 28.48323 | 103.98040 | 35225 ft | 449 kts | 218° |
| 2026-05-07 20:42 | 28.45677 | 103.96167 | 35458 ft | 449 kts | 219° |
| 2026-05-07 20:42 | 28.43029 | 103.94264 | 35686 ft | 449 kts | 219° |
| 2026-05-07 20:42 | 28.40397 | 103.92377 | 35889 ft | 448 kts | 219° |
| 2026-05-07 20:43 | 28.37768 | 103.90490 | 36184 ft | 447 kts | 219° |
| 2026-05-07 20:43 | 28.36024 | 103.89248 | 36368 ft | 446 kts | 219° |
| 2026-05-07 20:43 | 28.32492 | 103.86752 | 36688 ft | 446 kts | 219° |
| 2026-05-07 20:43 | 28.29864 | 103.84918 | 36847 ft | 445 kts | 218° |
| 2026-05-07 20:44 | 28.27223 | 103.83077 | 37013 ft | 445 kts | 218° |
| 2026-05-07 20:44 | 28.24588 | 103.81235 | 37217 ft | 445 kts | 219° |
| 2026-05-07 20:44 | 28.22844 | 103.80014 | 37314 ft | 447 kts | 219° |
| 2026-05-07 20:44 | 28.20194 | 103.78150 | 37480 ft | 448 kts | 219° |
| 2026-05-07 20:45 | 28.17551 | 103.76290 | 37750 ft | 448 kts | 218° |
| 2026-05-07 20:45 | 28.14905 | 103.74439 | 38042 ft | 446 kts | 219° |
| 2026-05-07 20:45 | 28.12255 | 103.72580 | 38233 ft | 446 kts | 219° |
| 2026-05-07 20:46 | 28.06988 | 103.68880 | 38269 ft | 446 kts | 219° |
| 2026-05-07 20:46 | 28.01701 | 103.65177 | 38270 ft | 448 kts | 219° |
| 2026-05-07 20:47 | 27.96400 | 103.61472 | 38275 ft | 447 kts | 218° |
| 2026-05-07 20:47 | 27.91096 | 103.57769 | 38291 ft | 449 kts | 218° |
| 2026-05-07 20:48 | 27.85787 | 103.54063 | 38308 ft | 449 kts | 218° |
| 2026-05-07 20:48 | 27.80466 | 103.50365 | 38298 ft | 449 kts | 218° |
| 2026-05-07 20:49 | 27.75148 | 103.46683 | 38308 ft | 448 kts | 218° |
| 2026-05-07 20:49 | 27.69836 | 103.43002 | 38307 ft | 448 kts | 218° |
| 2026-05-07 20:50 | 27.64511 | 103.39311 | 38310 ft | 449 kts | 218° |
| 2026-05-07 20:50 | 27.59194 | 103.35631 | 38315 ft | 449 kts | 218° |
| 2026-05-07 20:51 | 27.53876 | 103.31944 | 38316 ft | 448 kts | 218° |
| 2026-05-07 20:51 | 27.48566 | 103.28271 | 38317 ft | 448 kts | 218° |
| 2026-05-07 20:52 | 27.43033 | 103.24951 | 38288 ft | 456 kts | 210° |
| 2026-05-07 20:52 | 27.37131 | 103.22221 | 38317 ft | 460 kts | 209° |
| 2026-05-07 20:53 | 27.31172 | 103.19600 | 38318 ft | 459 kts | 209° |
| 2026-05-07 20:53 | 27.25212 | 103.16995 | 38314 ft | 459 kts | 209° |
| 2026-05-07 20:54 | 27.19277 | 103.14382 | 38318 ft | 459 kts | 209° |
| 2026-05-07 20:54 | 27.13332 | 103.11753 | 38328 ft | 460 kts | 208° |
| 2026-05-07 20:55 | 27.07386 | 103.09114 | 38326 ft | 459 kts | 208° |
| 2026-05-07 20:55 | 27.01447 | 103.06500 | 38325 ft | 459 kts | 208° |
| 2026-05-07 20:56 | 26.95486 | 103.03880 | 38322 ft | 459 kts | 208° |
| 2026-05-07 20:56 | 26.89526 | 103.01307 | 38320 ft | 460 kts | 208° |
| 2026-05-07 20:57 | 26.83601 | 102.98699 | 38317 ft | 460 kts | 208° |
| 2026-05-07 20:57 | 26.77626 | 102.96050 | 38329 ft | 462 kts | 208° |
| 2026-05-07 20:58 | 26.71652 | 102.93417 | 38325 ft | 462 kts | 208° |
| 2026-05-07 20:58 | 26.65634 | 102.90781 | 38307 ft | 465 kts | 208° |
| 2026-05-07 20:59 | 26.59625 | 102.88158 | 38311 ft | 462 kts | 208° |
| 2026-05-07 20:59 | 26.53648 | 102.85549 | 38321 ft | 462 kts | 208° |
| 2026-05-07 21:00 | 26.47664 | 102.82934 | 38319 ft | 461 kts | 208° |
| 2026-05-07 21:00 | 26.41701 | 102.80322 | 38324 ft | 460 kts | 208° |
| 2026-05-07 21:01 | 26.35728 | 102.77730 | 38328 ft | 461 kts | 207° |
| 2026-05-07 21:01 | 26.29747 | 102.75132 | 38331 ft | 462 kts | 208° |
| 2026-05-07 21:02 | 26.23762 | 102.72534 | 38328 ft | 461 kts | 207° |
| 2026-05-07 21:02 | 26.17793 | 102.69966 | 38328 ft | 460 kts | 205° |
| 2026-05-07 21:03 | 26.11502 | 102.68346 | 38337 ft | 469 kts | 196° |
| 2026-05-07 21:03 | 26.05013 | 102.67251 | 38345 ft | 471 kts | 194° |
| 2026-05-07 21:04 | 25.98520 | 102.66256 | 38340 ft | 471 kts | 194° |
| 2026-05-07 21:04 | 25.92022 | 102.65248 | 38355 ft | 473 kts | 194° |
| 2026-05-07 21:05 | 25.85465 | 102.64211 | 38339 ft | 473 kts | 195° |
| 2026-05-07 21:05 | 25.78994 | 102.63198 | 38347 ft | 473 kts | 194° |
| 2026-05-07 21:06 | 25.72484 | 102.62171 | 38336 ft | 473 kts | 194° |
| 2026-05-07 21:06 | 25.65970 | 102.61119 | 38343 ft | 473 kts | 194° |
| 2026-05-07 21:07 | 25.59462 | 102.60086 | 38344 ft | 473 kts | 194° |
| 2026-05-07 21:07 | 25.52956 | 102.59058 | 38324 ft | 472 kts | 194° |
| 2026-05-07 21:08 | 25.46443 | 102.58034 | 38355 ft | 472 kts | 194° |
| 2026-05-07 21:08 | 25.39941 | 102.57003 | 38331 ft | 472 kts | 194° |
| 2026-05-07 21:09 | 25.33430 | 102.55973 | 38347 ft | 472 kts | 193° |
| 2026-05-07 21:09 | 25.26913 | 102.54954 | 38353 ft | 473 kts | 194° |
| 2026-05-07 21:10 | 25.20401 | 102.53927 | 38352 ft | 473 kts | 194° |
| 2026-05-07 21:10 | 25.13888 | 102.52901 | 38354 ft | 473 kts | 194° |
| 2026-05-07 21:11 | 25.07563 | 102.51144 | 38355 ft | 463 kts | 207° |
| 2026-05-07 21:11 | 24.99206 | 102.46074 | 38332 ft | 457 kts | 215° |
| 2026-05-07 21:12 | 24.93795 | 102.42396 | 38329 ft | 457 kts | 216° |
| 2026-05-07 21:12 | 24.88390 | 102.38713 | 38324 ft | 457 kts | 215° |
| 2026-05-07 21:13 | 24.82974 | 102.35053 | 38311 ft | 456 kts | 215° |
| 2026-05-07 21:13 | 24.77553 | 102.31406 | 38307 ft | 458 kts | 215° |
| 2026-05-07 21:14 | 24.72121 | 102.27770 | 38291 ft | 457 kts | 215° |
| 2026-05-07 21:14 | 24.66681 | 102.24136 | 38289 ft | 457 kts | 215° |
| 2026-05-07 21:15 | 24.64893 | 102.22942 | 38291 ft | 457 kts | 215° |
| 2026-05-07 21:15 | 24.55823 | 102.16884 | 38273 ft | 458 kts | 215° |
| 2026-05-07 21:16 | 24.50372 | 102.13244 | 38254 ft | 457 kts | 215° |
| 2026-05-07 21:16 | 24.44941 | 102.09622 | 38263 ft | 458 kts | 214° |
| 2026-05-07 21:17 | 24.39494 | 102.06007 | 38248 ft | 458 kts | 214° |
| 2026-05-07 21:17 | 24.34036 | 102.02376 | 38231 ft | 458 kts | 215° |
| 2026-05-07 21:18 | 24.28608 | 101.98746 | 38220 ft | 457 kts | 215° |
| 2026-05-07 21:18 | 24.23175 | 101.95119 | 38221 ft | 458 kts | 214° |
| 2026-05-07 21:19 | 24.17753 | 101.91541 | 38217 ft | 458 kts | 214° |
| 2026-05-07 21:19 | 24.12259 | 101.87918 | 38194 ft | 458 kts | 214° |
| 2026-05-07 21:20 | 24.06800 | 101.84312 | 38194 ft | 459 kts | 214° |
| 2026-05-07 21:20 | 24.01325 | 101.80691 | 38218 ft | 458 kts | 214° |
| 2026-05-07 21:21 | 23.98614 | 101.78897 | 38366 ft | 458 kts | 214° |
| 2026-05-07 21:21 | 23.95881 | 101.77100 | 38620 ft | 457 kts | 214° |
| 2026-05-07 21:21 | 23.93165 | 101.75317 | 38856 ft | 454 kts | 214° |
| 2026-05-07 21:21 | 23.90450 | 101.73533 | 38888 ft | 457 kts | 214° |
| 2026-05-07 21:22 | 23.84976 | 101.69943 | 39160 ft | 457 kts | 214° |
| 2026-05-07 21:22 | 23.82251 | 101.68159 | 39270 ft | 457 kts | 214° |
| 2026-05-07 21:22 | 23.79539 | 101.66383 | 39435 ft | 455 kts | 214° |
| 2026-05-07 21:23 | 23.76827 | 101.64606 | 39623 ft | 454 kts | 213° |
| 2026-05-07 21:23 | 23.74122 | 101.62835 | 39741 ft | 454 kts | 213° |
| 2026-05-07 21:23 | 23.68703 | 101.59280 | 39948 ft | 454 kts | 213° |
| 2026-05-07 21:24 | 23.63278 | 101.55748 | 40032 ft | 454 kts | 213° |
| 2026-05-07 21:24 | 23.58733 | 101.52782 | 40049 ft | 455 kts | 213° |
| 2026-05-07 21:25 | 23.53281 | 101.49222 | 40044 ft | 457 kts | 213° |
| 2026-05-07 21:25 | 23.47823 | 101.45686 | 40046 ft | 457 kts | 213° |
| 2026-05-07 21:26 | 23.42372 | 101.42137 | 40032 ft | 456 kts | 213° |
| 2026-05-07 21:26 | 23.36918 | 101.38580 | 40030 ft | 456 kts | 213° |
| 2026-05-07 21:27 | 23.31479 | 101.35039 | 40028 ft | 456 kts | 213° |
| 2026-05-07 21:27 | 23.26076 | 101.31532 | 40012 ft | 458 kts | 213° |
| 2026-05-07 21:28 | 23.20546 | 101.27950 | 40010 ft | 458 kts | 213° |
| 2026-05-07 21:28 | 23.15106 | 101.24426 | 40011 ft | 457 kts | 213° |
| 2026-05-07 21:29 | 23.09632 | 101.20870 | 40009 ft | 457 kts | 213° |
| 2026-05-07 21:29 | 23.04208 | 101.17365 | 40001 ft | 457 kts | 213° |
| 2026-05-07 21:30 | 22.98746 | 101.13841 | 39998 ft | 457 kts | 213° |
| 2026-05-07 21:30 | 22.93280 | 101.10316 | 39995 ft | 457 kts | 213° |
| 2026-05-07 21:31 | 22.87822 | 101.06797 | 39994 ft | 457 kts | 213° |
| 2026-05-07 21:31 | 22.82358 | 101.03278 | 39992 ft | 457 kts | 213° |
| 2026-05-07 21:32 | 22.76654 | 101.00234 | 39976 ft | 461 kts | 201° |
| 2026-05-07 21:32 | 22.70308 | 100.98987 | 39976 ft | 469 kts | 184° |
| 2026-05-07 21:33 | 22.63792 | 101.00013 | 39986 ft | 481 kts | 166° |
| 2026-05-07 21:33 | 22.57455 | 101.02591 | 39982 ft | 485 kts | 162° |
| 2026-05-07 21:34 | 22.51262 | 101.05360 | 39972 ft | 486 kts | 162° |
| 2026-05-07 21:34 | 22.45007 | 101.08140 | 39964 ft | 486 kts | 162° |
| 2026-05-07 21:35 | 22.38745 | 101.10874 | 39961 ft | 485 kts | 162° |
| 2026-05-07 21:35 | 22.32468 | 101.13590 | 39953 ft | 486 kts | 162° |
| 2026-05-07 21:36 | 22.26179 | 101.16308 | 39958 ft | 486 kts | 162° |
| 2026-05-07 21:36 | 22.19900 | 101.19021 | 39947 ft | 486 kts | 162° |
| 2026-05-07 21:37 | 22.13619 | 101.21729 | 39944 ft | 486 kts | 162° |
| 2026-05-07 21:37 | 22.07358 | 101.24429 | 39945 ft | 485 kts | 162° |
| 2026-05-07 21:38 | 22.01097 | 101.27130 | 39943 ft | 488 kts | 162° |
| 2026-05-07 21:38 | 21.94796 | 101.29843 | 39944 ft | 487 kts | 162° |
| 2026-05-07 21:39 | 21.88456 | 101.32580 | 39941 ft | 488 kts | 162° |
| 2026-05-07 21:39 | 21.82159 | 101.35297 | 39940 ft | 488 kts | 162° |
| 2026-05-07 21:40 | 21.75897 | 101.37994 | 39942 ft | 488 kts | 162° |
| 2026-05-07 21:40 | 21.69595 | 101.40707 | 39938 ft | 488 kts | 162° |
| 2026-05-07 21:41 | 21.63276 | 101.43425 | 39937 ft | 488 kts | 162° |
| 2026-05-07 21:41 | 21.56969 | 101.46138 | 39945 ft | 489 kts | 162° |
| 2026-05-07 21:42 | 21.50659 | 101.48846 | 39942 ft | 489 kts | 162° |
| 2026-05-07 21:42 | 21.44343 | 101.51555 | 39941 ft | 489 kts | 162° |
| 2026-05-07 21:43 | 21.37991 | 101.54277 | 39939 ft | 488 kts | 161° |
| 2026-05-07 21:43 | 21.31746 | 101.56952 | 39943 ft | 486 kts | 161° |
| 2026-05-07 21:44 | 21.25464 | 101.59639 | 39944 ft | 485 kts | 161° |
| 2026-05-07 21:44 | 21.19194 | 101.62319 | 39946 ft | 485 kts | 161° |
| 2026-05-07 21:45 | 21.12927 | 101.65020 | 39951 ft | 486 kts | 161° |
| 2026-05-07 21:45 | 21.06654 | 101.67731 | 39946 ft | 486 kts | 161° |
| 2026-05-07 21:46 | 21.00370 | 101.70441 | 39954 ft | 489 kts | 161° |
| 2026-05-07 21:46 | 20.94047 | 101.73166 | 39956 ft | 490 kts | 161° |
| 2026-05-07 21:47 | 20.87711 | 101.75895 | 39955 ft | 490 kts | 161° |
| 2026-05-07 21:47 | 20.81389 | 101.78615 | 39962 ft | 490 kts | 161° |
| 2026-05-07 21:48 | 20.75061 | 101.81334 | 39961 ft | 490 kts | 161° |
| 2026-05-07 21:48 | 20.68727 | 101.84054 | 39960 ft | 490 kts | 161° |
| 2026-05-07 21:49 | 20.62407 | 101.86764 | 39962 ft | 490 kts | 161° |
| 2026-05-07 21:49 | 20.56082 | 101.89475 | 39961 ft | 490 kts | 161° |
| 2026-05-07 21:50 | 20.49753 | 101.92185 | 39958 ft | 490 kts | 161° |
| 2026-05-07 21:50 | 20.43434 | 101.94888 | 39960 ft | 490 kts | 161° |
| 2026-05-07 21:51 | 20.37114 | 101.97589 | 39957 ft | 490 kts | 161° |
| 2026-05-07 21:51 | 20.30778 | 102.00295 | 39958 ft | 489 kts | 161° |
| 2026-05-07 21:52 | 20.24435 | 102.03001 | 39956 ft | 489 kts | 161° |
| 2026-05-07 21:52 | 20.18100 | 102.05701 | 39943 ft | 490 kts | 161° |
| 2026-05-07 21:53 | 20.11810 | 102.08379 | 39942 ft | 491 kts | 161° |
| 2026-05-07 21:53 | 20.05441 | 102.11090 | 39942 ft | 491 kts | 161° |
| 2026-05-07 21:54 | 19.99094 | 102.13790 | 39942 ft | 491 kts | 160° |
| 2026-05-07 21:54 | 19.92588 | 102.15716 | 39933 ft | 485 kts | 175° |
| 2026-05-07 21:55 | 19.85907 | 102.15509 | 39949 ft | 479 kts | 194° |
| 2026-05-07 21:55 | 19.79428 | 102.13746 | 39937 ft | 478 kts | 198° |
| 2026-05-07 21:56 | 19.73090 | 102.11751 | 39952 ft | 478 kts | 198° |
| 2026-05-07 21:56 | 19.66662 | 102.09727 | 39931 ft | 481 kts | 198° |
| 2026-05-07 21:57 | 19.60222 | 102.07739 | 39954 ft | 482 kts | 198° |
| 2026-05-07 21:57 | 19.53810 | 102.05781 | 39954 ft | 482 kts | 198° |
| 2026-05-07 21:58 | 19.47364 | 102.03817 | 39949 ft | 482 kts | 198° |
| 2026-05-07 21:58 | 19.40873 | 102.01840 | 39947 ft | 482 kts | 197° |
| 2026-05-07 21:59 | 19.34427 | 101.99876 | 39948 ft | 483 kts | 197° |
| 2026-05-07 21:59 | 19.27958 | 101.97907 | 39944 ft | 483 kts | 197° |
| 2026-05-07 22:00 | 19.21492 | 101.95942 | 39944 ft | 484 kts | 197° |
| 2026-05-07 22:00 | 19.15069 | 101.93990 | 39941 ft | 483 kts | 197° |
| 2026-05-07 22:01 | 19.08619 | 101.92031 | 39938 ft | 483 kts | 197° |
| 2026-05-07 22:01 | 19.02135 | 101.90064 | 39933 ft | 483 kts | 197° |
| 2026-05-07 22:02 | 18.95674 | 101.88107 | 39930 ft | 483 kts | 197° |
| 2026-05-07 22:02 | 18.89214 | 101.86151 | 39933 ft | 483 kts | 197° |
| 2026-05-07 22:03 | 18.82756 | 101.84196 | 39923 ft | 483 kts | 197° |
| 2026-05-07 22:03 | 18.76296 | 101.82243 | 39925 ft | 483 kts | 197° |
| 2026-05-07 22:04 | 18.69808 | 101.80283 | 39920 ft | 484 kts | 197° |
| 2026-05-07 22:04 | 18.63334 | 101.78329 | 39922 ft | 485 kts | 197° |
| 2026-05-07 22:05 | 18.56839 | 101.76369 | 39917 ft | 485 kts | 197° |
| 2026-05-07 22:05 | 18.50348 | 101.74413 | 39922 ft | 485 kts | 197° |
| 2026-05-07 22:06 | 18.43856 | 101.72458 | 39913 ft | 485 kts | 197° |
| 2026-05-07 22:06 | 18.37364 | 101.70504 | 39914 ft | 485 kts | 197° |
| 2026-05-07 22:07 | 18.31968 | 101.68882 | 39914 ft | 485 kts | 197° |
| 2026-05-07 22:07 | 18.25437 | 101.66919 | 39914 ft | 485 kts | 197° |
| 2026-05-07 22:08 | 18.18993 | 101.64984 | 39913 ft | 484 kts | 197° |
| 2026-05-07 22:08 | 18.12506 | 101.63037 | 39914 ft | 484 kts | 197° |
| 2026-05-07 22:09 | 18.06030 | 101.61096 | 39910 ft | 485 kts | 196° |
| 2026-05-07 22:09 | 17.99516 | 101.59144 | 39916 ft | 488 kts | 196° |
| 2026-05-07 22:10 | 17.92978 | 101.57187 | 39914 ft | 488 kts | 196° |
| 2026-05-07 22:10 | 17.86458 | 101.55237 | 39914 ft | 488 kts | 196° |
| 2026-05-07 22:11 | 17.79929 | 101.53287 | 39914 ft | 488 kts | 196° |
| 2026-05-07 22:11 | 17.73393 | 101.51334 | 39910 ft | 488 kts | 196° |
| 2026-05-07 22:12 | 17.66838 | 101.49372 | 39921 ft | 492 kts | 196° |
| 2026-05-07 22:12 | 17.60236 | 101.47377 | 39922 ft | 493 kts | 196° |
| 2026-05-07 22:13 | 17.53645 | 101.45389 | 39924 ft | 493 kts | 196° |
| 2026-05-07 22:13 | 17.47048 | 101.43405 | 39925 ft | 493 kts | 196° |
| 2026-05-07 22:14 | 17.40452 | 101.41425 | 39924 ft | 493 kts | 196° |
| 2026-05-07 22:14 | 17.33834 | 101.39439 | 39928 ft | 495 kts | 196° |
| 2026-05-07 22:15 | 17.27212 | 101.37456 | 39927 ft | 496 kts | 196° |
| 2026-05-07 22:15 | 17.20577 | 101.35481 | 39928 ft | 496 kts | 196° |
| 2026-05-07 22:16 | 17.13941 | 101.33504 | 39920 ft | 496 kts | 196° |
| 2026-05-07 22:16 | 17.07309 | 101.31534 | 39918 ft | 496 kts | 196° |
| 2026-05-07 22:17 | 17.00667 | 101.29542 | 39911 ft | 497 kts | 196° |
| 2026-05-07 22:17 | 16.94028 | 101.27552 | 39914 ft | 495 kts | 196° |
| 2026-05-07 22:18 | 16.84093 | 101.24584 | 39911 ft | 495 kts | 196° |
| 2026-05-07 22:19 | 16.77468 | 101.22608 | 39908 ft | 495 kts | 196° |
| 2026-05-07 22:19 | 16.70846 | 101.20635 | 39912 ft | 496 kts | 195° |
| 2026-05-07 22:20 | 16.64194 | 101.18578 | 39912 ft | 499 kts | 199° |
| 2026-05-07 22:20 | 16.57669 | 101.16074 | 39908 ft | 500 kts | 201° |
| 2026-05-07 22:21 | 16.51175 | 101.13482 | 39911 ft | 500 kts | 200° |
| 2026-05-07 22:21 | 16.44707 | 101.10971 | 39902 ft | 500 kts | 200° |
| 2026-05-07 22:22 | 16.38164 | 101.08481 | 39899 ft | 500 kts | 200° |
| 2026-05-07 22:22 | 16.31617 | 101.06005 | 39894 ft | 502 kts | 200° |
| 2026-05-07 22:23 | 16.25045 | 101.03519 | 39896 ft | 503 kts | 200° |
| 2026-05-07 22:23 | 16.18472 | 101.01033 | 39878 ft | 503 kts | 200° |
| 2026-05-07 22:24 | 16.11861 | 100.98532 | 39882 ft | 503 kts | 200° |
| 2026-05-07 22:24 | 16.05282 | 100.96046 | 39878 ft | 503 kts | 200° |
| 2026-05-07 22:25 | 15.98686 | 100.93555 | 39876 ft | 507 kts | 200° |
| 2026-05-07 22:25 | 15.92043 | 100.91048 | 39873 ft | 508 kts | 200° |
| 2026-05-07 22:26 | 15.85391 | 100.88539 | 39873 ft | 508 kts | 200° |
| 2026-05-07 22:26 | 15.78738 | 100.86032 | 39867 ft | 508 kts | 200° |
| 2026-05-07 22:27 | 15.72106 | 100.83534 | 39865 ft | 508 kts | 200° |
| 2026-05-07 22:27 | 15.65445 | 100.81027 | 39867 ft | 509 kts | 200° |
| 2026-05-07 22:28 | 15.58826 | 100.78538 | 39866 ft | 509 kts | 200° |
| 2026-05-07 22:28 | 15.52126 | 100.76020 | 39867 ft | 509 kts | 200° |
| 2026-05-07 22:29 | 15.45506 | 100.73535 | 39868 ft | 509 kts | 200° |
| 2026-05-07 22:29 | 15.38827 | 100.71028 | 39865 ft | 509 kts | 200° |
| 2026-05-07 22:30 | 15.32179 | 100.68535 | 39865 ft | 508 kts | 199° |
| 2026-05-07 22:30 | 15.25336 | 100.66822 | 39868 ft | 506 kts | 184° |
| 2026-05-07 22:31 | 15.18307 | 100.66270 | 39864 ft | 506 kts | 182° |
| 2026-05-07 22:31 | 15.11269 | 100.65922 | 39864 ft | 506 kts | 181° |
| 2026-05-07 22:32 | 15.04231 | 100.65592 | 39865 ft | 506 kts | 182° |
| 2026-05-07 22:32 | 14.97185 | 100.65238 | 39864 ft | 506 kts | 182° |
| 2026-05-07 22:33 | 14.90150 | 100.64871 | 39864 ft | 507 kts | 182° |
| 2026-05-07 22:33 | 14.83109 | 100.64501 | 39864 ft | 507 kts | 182° |
| 2026-05-07 22:34 | 14.76064 | 100.64132 | 39864 ft | 507 kts | 182° |
| 2026-05-07 22:34 | 14.68983 | 100.63762 | 39868 ft | 506 kts | 182° |
| 2026-05-07 22:35 | 14.62003 | 100.63398 | 39862 ft | 505 kts | 182° |
| 2026-05-07 22:35 | 14.54984 | 100.63032 | 39862 ft | 504 kts | 182° |
| 2026-05-07 22:36 | 14.47943 | 100.62665 | 39862 ft | 504 kts | 182° |
| 2026-05-07 22:36 | 14.40983 | 100.62303 | 39862 ft | 504 kts | 182° |
| 2026-05-07 22:37 | 14.33967 | 100.61937 | 39862 ft | 504 kts | 182° |
| 2026-05-07 22:37 | 14.26977 | 100.61574 | 39862 ft | 503 kts | 182° |
| 2026-05-07 22:38 | 14.19996 | 100.61211 | 39857 ft | 502 kts | 182° |
| 2026-05-07 22:38 | 14.13017 | 100.60848 | 39859 ft | 502 kts | 182° |
| 2026-05-07 22:39 | 14.06045 | 100.60486 | 39858 ft | 502 kts | 182° |
| 2026-05-07 22:39 | 13.99069 | 100.60124 | 39857 ft | 502 kts | 182° |
| 2026-05-07 22:40 | 13.92087 | 100.59749 | 39853 ft | 500 kts | 184° |
| 2026-05-07 22:40 | 13.85291 | 100.58397 | 39856 ft | 499 kts | 194° |
| 2026-05-07 22:41 | 13.78553 | 100.56452 | 39858 ft | 500 kts | 196° |
| 2026-05-07 22:41 | 13.71901 | 100.54430 | 39857 ft | 503 kts | 196° |
| 2026-05-07 22:42 | 13.65147 | 100.52384 | 39855 ft | 503 kts | 196° |
| 2026-05-07 22:42 | 13.58482 | 100.50384 | 39856 ft | 501 kts | 195° |
| 2026-05-07 22:43 | 13.51793 | 100.48386 | 39855 ft | 499 kts | 195° |
| 2026-05-07 22:43 | 13.45137 | 100.46400 | 39854 ft | 499 kts | 195° |
| 2026-05-07 22:44 | 13.38474 | 100.44413 | 39854 ft | 499 kts | 195° |
| 2026-05-07 22:44 | 13.31804 | 100.42424 | 39853 ft | 499 kts | 195° |
| 2026-05-07 22:45 | 13.25141 | 100.40439 | 39851 ft | 499 kts | 196° |
| 2026-05-07 22:45 | 13.18411 | 100.38435 | 39850 ft | 500 kts | 196° |
| 2026-05-07 22:46 | 13.11766 | 100.36464 | 39849 ft | 501 kts | 196° |
| 2026-05-07 22:46 | 13.05051 | 100.34465 | 39851 ft | 501 kts | 196° |
| 2026-05-07 22:47 | 12.98342 | 100.32467 | 39851 ft | 501 kts | 196° |
| 2026-05-07 22:47 | 12.91737 | 100.30361 | 39850 ft | 500 kts | 197° |
| 2026-05-07 22:48 | 12.85096 | 100.28175 | 39852 ft | 499 kts | 197° |
| 2026-05-07 22:48 | 12.78502 | 100.26025 | 39848 ft | 499 kts | 197° |
| 2026-05-07 22:49 | 12.71875 | 100.23884 | 39847 ft | 499 kts | 197° |
| 2026-05-07 22:49 | 12.66329 | 100.22099 | 39848 ft | 499 kts | 197° |
| 2026-05-07 22:50 | 12.59700 | 100.19967 | 39839 ft | 499 kts | 197° |
| 2026-05-07 22:50 | 12.53084 | 100.17840 | 39838 ft | 498 kts | 197° |
| 2026-05-07 22:51 | 12.46483 | 100.15717 | 39836 ft | 497 kts | 197° |
| 2026-05-07 22:51 | 12.39880 | 100.13596 | 39844 ft | 497 kts | 197° |
| 2026-05-07 22:52 | 12.33274 | 100.11474 | 39844 ft | 497 kts | 197° |
| 2026-05-07 22:52 | 12.26675 | 100.09356 | 39849 ft | 497 kts | 197° |
| 2026-05-07 22:53 | 12.20073 | 100.07238 | 39849 ft | 497 kts | 197° |
| 2026-05-07 22:53 | 12.13453 | 100.05115 | 39849 ft | 499 kts | 197° |
| 2026-05-07 22:54 | 12.06878 | 100.03008 | 39852 ft | 499 kts | 197° |
| 2026-05-07 22:54 | 12.00246 | 100.00914 | 39848 ft | 499 kts | 195° |
| 2026-05-07 22:55 | 11.93571 | 99.98991 | 39847 ft | 499 kts | 195° |
| 2026-05-07 22:55 | 11.86877 | 99.97102 | 39856 ft | 499 kts | 195° |
| 2026-05-07 22:56 | 11.80199 | 99.95195 | 39853 ft | 498 kts | 195° |
| 2026-05-07 22:56 | 11.73538 | 99.93275 | 39850 ft | 498 kts | 195° |
| 2026-05-07 22:57 | 11.66870 | 99.91351 | 39845 ft | 498 kts | 195° |
| 2026-05-07 22:57 | 11.60212 | 99.89430 | 39847 ft | 497 kts | 195° |
| 2026-05-07 22:58 | 11.53552 | 99.87511 | 39847 ft | 497 kts | 195° |
| 2026-05-07 22:58 | 11.46883 | 99.85590 | 39846 ft | 498 kts | 195° |
| 2026-05-07 22:59 | 11.40221 | 99.83672 | 39844 ft | 498 kts | 195° |
| 2026-05-07 22:59 | 11.33554 | 99.81755 | 39850 ft | 499 kts | 195° |
| 2026-05-07 23:00 | 11.26832 | 99.79821 | 39845 ft | 499 kts | 195° |
| 2026-05-07 23:00 | 11.20177 | 99.77909 | 39851 ft | 500 kts | 195° |
| 2026-05-07 23:01 | 11.13487 | 99.75987 | 39847 ft | 499 kts | 195° |
| 2026-05-07 23:01 | 11.06828 | 99.73956 | 39848 ft | 499 kts | 197° |
| 2026-05-07 23:02 | 11.00215 | 99.71841 | 39844 ft | 499 kts | 197° |
| 2026-05-07 23:02 | 10.93596 | 99.69738 | 39846 ft | 498 kts | 197° |
| 2026-05-07 23:03 | 10.86967 | 99.67655 | 39850 ft | 498 kts | 197° |
| 2026-05-07 23:03 | 10.80366 | 99.65590 | 39843 ft | 499 kts | 197° |
| 2026-05-07 23:04 | 10.73703 | 99.63508 | 39849 ft | 500 kts | 197° |
| 2026-05-07 23:04 | 10.67047 | 99.61427 | 39845 ft | 500 kts | 197° |
| 2026-05-07 23:05 | 10.60378 | 99.59342 | 39845 ft | 500 kts | 197° |
| 2026-05-07 23:05 | 10.53788 | 99.57283 | 39845 ft | 500 kts | 197° |
| 2026-05-07 23:06 | 10.47129 | 99.55204 | 39844 ft | 500 kts | 197° |
| 2026-05-07 23:06 | 10.40428 | 99.53112 | 39843 ft | 500 kts | 197° |
| 2026-05-07 23:07 | 10.33826 | 99.51053 | 39842 ft | 500 kts | 197° |
| 2026-05-07 23:07 | 10.27137 | 99.48967 | 39838 ft | 500 kts | 197° |
| 2026-05-07 23:08 | 10.20522 | 99.46905 | 39840 ft | 500 kts | 197° |
| 2026-05-07 23:08 | 10.13884 | 99.44837 | 39721 ft | 499 kts | 197° |
| 2026-05-07 23:08 | 10.10553 | 99.43799 | 39476 ft | 500 kts | 197° |
| 2026-05-07 23:09 | 10.07195 | 99.42754 | 39236 ft | 501 kts | 197° |
| 2026-05-07 23:09 | 10.03867 | 99.41717 | 39007 ft | 501 kts | 197° |
| 2026-05-07 23:09 | 10.00566 | 99.40689 | 38782 ft | 502 kts | 197° |
| 2026-05-07 23:09 | 9.97186 | 99.39638 | 38544 ft | 502 kts | 197° |
| 2026-05-07 23:10 | 9.93887 | 99.38611 | 38291 ft | 503 kts | 197° |
| 2026-05-07 23:10 | 9.90544 | 99.37571 | 38029 ft | 503 kts | 197° |
| 2026-05-07 23:10 | 9.87201 | 99.36531 | 37769 ft | 504 kts | 197° |
| 2026-05-07 23:10 | 9.83839 | 99.35486 | 37506 ft | 504 kts | 197° |
| 2026-05-07 23:11 | 9.80465 | 99.34437 | 37191 ft | 503 kts | 197° |
| 2026-05-07 23:11 | 9.77113 | 99.33395 | 36636 ft | 500 kts | 197° |
| 2026-05-07 23:11 | 9.73794 | 99.32364 | 35973 ft | 500 kts | 197° |
| 2026-05-07 23:11 | 9.70470 | 99.31331 | 35297 ft | 500 kts | 197° |
| 2026-05-07 23:12 | 9.67141 | 99.30297 | 34599 ft | 500 kts | 197° |
| 2026-05-07 23:12 | 9.63847 | 99.29274 | 33814 ft | 503 kts | 197° |
| 2026-05-07 23:12 | 9.60450 | 99.28220 | 32922 ft | 505 kts | 197° |
| 2026-05-07 23:12 | 9.57110 | 99.27183 | 32097 ft | 507 kts | 197° |
| 2026-05-07 23:13 | 9.53714 | 99.26129 | 31245 ft | 508 kts | 197° |
| 2026-05-07 23:13 | 9.50323 | 99.25081 | 30415 ft | 510 kts | 197° |
| 2026-05-07 23:13 | 9.46937 | 99.24031 | 29739 ft | 507 kts | 197° |
| 2026-05-07 23:13 | 9.43581 | 99.22988 | 29085 ft | 503 kts | 197° |
| 2026-05-07 23:14 | 9.40252 | 99.21952 | 28482 ft | 497 kts | 197° |
| 2026-05-07 23:14 | 9.37008 | 99.20942 | 27912 ft | 492 kts | 196° |
| 2026-05-07 23:14 | 9.33705 | 99.19915 | 27316 ft | 487 kts | 196° |
| 2026-05-07 23:14 | 9.30521 | 99.18926 | 26768 ft | 483 kts | 196° |
| 2026-05-07 23:15 | 9.27328 | 99.17935 | 26207 ft | 478 kts | 196° |
| 2026-05-07 23:15 | 9.24159 | 99.16952 | 25642 ft | 474 kts | 196° |
| 2026-05-07 23:15 | 9.21021 | 99.15979 | 25087 ft | 469 kts | 196° |
| 2026-05-07 23:15 | 9.17915 | 99.15016 | 24536 ft | 465 kts | 196° |
| 2026-05-07 23:16 | 9.14849 | 99.13998 | 23990 ft | 462 kts | 201° |
| 2026-05-07 23:16 | 9.12018 | 99.12480 | 23389 ft | 460 kts | 212° |
| 2026-05-07 23:16 | 9.09404 | 99.10633 | 22737 ft | 457 kts | 216° |
| 2026-05-07 23:16 | 9.06896 | 99.08674 | 22151 ft | 452 kts | 217° |
| 2026-05-07 23:17 | 9.04463 | 99.06676 | 21612 ft | 447 kts | 218° |
| 2026-05-07 23:17 | 9.02090 | 99.04689 | 21042 ft | 442 kts | 218° |
| 2026-05-07 23:17 | 8.99720 | 99.02702 | 20491 ft | 438 kts | 218° |
| 2026-05-07 23:17 | 8.97377 | 99.00748 | 19953 ft | 434 kts | 218° |
| 2026-05-07 23:18 | 8.95049 | 98.98821 | 19389 ft | 430 kts | 218° |
| 2026-05-07 23:18 | 8.92750 | 98.96930 | 18829 ft | 427 kts | 217° |
| 2026-05-07 23:18 | 8.90444 | 98.95040 | 18262 ft | 424 kts | 217° |
| 2026-05-07 23:18 | 8.88157 | 98.93169 | 17664 ft | 421 kts | 217° |
| 2026-05-07 23:19 | 8.85888 | 98.91313 | 17091 ft | 416 kts | 217° |
| 2026-05-07 23:19 | 8.83663 | 98.89494 | 16531 ft | 412 kts | 217° |
| 2026-05-07 23:19 | 8.81439 | 98.87676 | 16003 ft | 409 kts | 217° |
| 2026-05-07 23:19 | 8.79226 | 98.85870 | 15432 ft | 406 kts | 217° |
| 2026-05-07 23:20 | 8.77038 | 98.84090 | 14873 ft | 404 kts | 217° |
| 2026-05-07 23:20 | 8.74861 | 98.82319 | 14338 ft | 401 kts | 217° |
| 2026-05-07 23:20 | 8.72671 | 98.80537 | 13786 ft | 399 kts | 217° |
| 2026-05-07 23:20 | 8.70513 | 98.78782 | 13206 ft | 396 kts | 217° |
| 2026-05-07 23:21 | 8.68370 | 98.77039 | 12652 ft | 392 kts | 217° |
| 2026-05-07 23:21 | 8.66274 | 98.75333 | 12217 ft | 385 kts | 217° |
| 2026-05-07 23:21 | 8.64172 | 98.73624 | 11760 ft | 381 kts | 217° |
| 2026-05-07 23:21 | 8.62135 | 98.71967 | 11220 ft | 379 kts | 217° |
| 2026-05-07 23:22 | 8.60097 | 98.70310 | 10742 ft | 375 kts | 217° |
| 2026-05-07 23:22 | 8.58103 | 98.68689 | 10622 ft | 358 kts | 217° |
| 2026-05-07 23:22 | 8.56212 | 98.67148 | 10513 ft | 341 kts | 217° |
| 2026-05-07 23:22 | 8.54404 | 98.65678 | 10381 ft | 327 kts | 217° |
| 2026-05-07 23:23 | 8.52669 | 98.64267 | 10217 ft | 314 kts | 217° |
| 2026-05-07 23:23 | 8.51020 | 98.62881 | 10087 ft | 303 kts | 221° |
| 2026-05-07 23:23 | 8.49722 | 98.61228 | 9942 ft | 300 kts | 236° |
| 2026-05-07 23:23 | 8.48639 | 98.59397 | 9793 ft | 305 kts | 238° |
| 2026-05-07 23:24 | 8.47587 | 98.57548 | 9630 ft | 306 kts | 239° |
| 2026-05-07 23:24 | 8.46528 | 98.55685 | 9486 ft | 305 kts | 238° |
| 2026-05-07 23:24 | 8.45470 | 98.53833 | 9350 ft | 304 kts | 238° |
| 2026-05-07 23:24 | 8.44407 | 98.51980 | 9212 ft | 303 kts | 238° |
| 2026-05-07 23:25 | 8.43354 | 98.50150 | 9068 ft | 302 kts | 238° |
| 2026-05-07 23:25 | 8.42296 | 98.48312 | 8924 ft | 302 kts | 238° |
| 2026-05-07 23:25 | 8.41236 | 98.46468 | 8781 ft | 301 kts | 238° |
| 2026-05-07 23:25 | 8.40190 | 98.44651 | 8656 ft | 300 kts | 238° |
| 2026-05-07 23:26 | 8.39142 | 98.42830 | 8493 ft | 299 kts | 238° |
| 2026-05-07 23:26 | 8.38087 | 98.40999 | 8356 ft | 299 kts | 238° |
| 2026-05-07 23:26 | 8.37039 | 98.39179 | 8197 ft | 298 kts | 238° |
| 2026-05-07 23:26 | 8.36001 | 98.37377 | 8083 ft | 298 kts | 238° |
| 2026-05-07 23:27 | 8.34272 | 98.34378 | 7838 ft | 296 kts | 238° |
| 2026-05-07 23:27 | 8.33232 | 98.32572 | 7718 ft | 296 kts | 238° |
| 2026-05-07 23:27 | 8.31855 | 98.30184 | 7523 ft | 295 kts | 238° |
| 2026-05-07 23:28 | 8.31158 | 98.28969 | 7440 ft | 296 kts | 238° |
| 2026-05-07 23:28 | 8.29796 | 98.26607 | 7262 ft | 294 kts | 238° |
| 2026-05-07 23:28 | 8.29111 | 98.25422 | 7169 ft | 293 kts | 238° |
| 2026-05-07 23:28 | 8.28074 | 98.23625 | 7031 ft | 292 kts | 238° |
| 2026-05-07 23:29 | 8.27066 | 98.21880 | 6895 ft | 291 kts | 238° |
| 2026-05-07 23:29 | 8.26049 | 98.20117 | 6759 ft | 291 kts | 238° |
| 2026-05-07 23:29 | 8.25020 | 98.18334 | 6624 ft | 289 kts | 238° |
| 2026-05-07 23:29 | 8.24013 | 98.16589 | 6491 ft | 288 kts | 238° |
| 2026-05-07 23:30 | 8.23003 | 98.14839 | 6362 ft | 288 kts | 238° |
| 2026-05-07 23:30 | 8.22009 | 98.13117 | 6215 ft | 287 kts | 238° |
| 2026-05-07 23:30 | 8.20993 | 98.11357 | 6091 ft | 286 kts | 238° |
| 2026-05-07 23:30 | 8.20036 | 98.09589 | 5949 ft | 286 kts | 245° |
| 2026-05-07 23:31 | 8.19504 | 98.07652 | 5820 ft | 287 kts | 259° |
| 2026-05-07 23:31 | 8.19192 | 98.05662 | 5688 ft | 287 kts | 261° |
| 2026-05-07 23:31 | 8.18844 | 98.03746 | 5552 ft | 276 kts | 252° |
| 2026-05-07 23:31 | 8.17884 | 98.02138 | 5430 ft | 259 kts | 220° |
| 2026-05-07 23:32 | 8.16358 | 98.01317 | 5316 ft | 252 kts | 190° |
| 2026-05-07 23:32 | 8.14601 | 98.01247 | 5188 ft | 250 kts | 174° |
| 2026-05-07 23:32 | 8.12853 | 98.01417 | 5076 ft | 252 kts | 172° |
| 2026-05-07 23:32 | 8.11128 | 98.01604 | 4949 ft | 250 kts | 173° |
| 2026-05-07 23:33 | 8.09473 | 98.01962 | 4838 ft | 237 kts | 156° |
| 2026-05-07 23:33 | 8.08193 | 98.02903 | 4740 ft | 223 kts | 128° |
| 2026-05-07 23:33 | 8.07556 | 98.04254 | 4626 ft | 212 kts | 101° |
| 2026-05-07 23:33 | 8.07602 | 98.05704 | 4532 ft | 203 kts | 75° |
| 2026-05-07 23:34 | 8.08194 | 98.06949 | 4428 ft | 192 kts | 58° |
| 2026-05-07 23:34 | 8.08866 | 98.08091 | 4159 ft | 188 kts | 67° |
| 2026-05-07 23:34 | 8.09197 | 98.09336 | 3924 ft | 181 kts | 83° |
| 2026-05-07 23:34 | 8.09344 | 98.10579 | 3640 ft | 174 kts | 85° |
| 2026-05-07 23:35 | 8.09454 | 98.11751 | 3407 ft | 162 kts | 86° |
| 2026-05-07 23:35 | 8.09555 | 98.12848 | 3222 ft | 153 kts | 86° |
| 2026-05-07 23:35 | 8.09651 | 98.13884 | 3032 ft | 144 kts | 86° |
| 2026-05-07 23:35 | 8.09744 | 98.14884 | 2844 ft | 143 kts | 86° |
| 2026-05-07 23:36 | 8.09836 | 98.15869 | 2669 ft | 143 kts | 87° |
| 2026-05-07 23:36 | 8.09930 | 98.16879 | 2488 ft | 143 kts | 86° |
| 2026-05-07 23:36 | 8.10023 | 98.17876 | 2322 ft | 143 kts | 86° |
| 2026-05-07 23:36 | 8.10115 | 98.18865 | 2125 ft | 143 kts | 85° |
| 2026-05-07 23:37 | 8.10211 | 98.19870 | 1974 ft | 142 kts | 86° |
| 2026-05-07 23:37 | 8.10304 | 98.20859 | 1784 ft | 141 kts | 86° |
| 2026-05-07 23:37 | 8.10396 | 98.21832 | 1616 ft | 141 kts | 86° |
| 2026-05-07 23:37 | 8.10490 | 98.22830 | 1423 ft | 141 kts | 86° |
| 2026-05-07 23:38 | 8.10571 | 98.23700 | 1284 ft | 140 kts | 85° |
| 2026-05-07 23:38 | 8.10665 | 98.24689 | 1107 ft | 140 kts | 86° |
| 2026-05-07 23:38 | 8.10755 | 98.25665 | 938 ft | 138 kts | 86° |
| 2026-05-07 23:38 | 8.10843 | 98.26618 | 772 ft | 139 kts | 85° |
| 2026-05-07 23:39 | 8.10936 | 98.27597 | 594 ft | 140 kts | 84° |
| 2026-05-07 23:39 | 8.11029 | 98.28584 | 409 ft | 141 kts | 84° |
| 2026-05-07 23:39 | 8.11122 | 98.29564 | 241 ft | 141 kts | 84° |
| 2026-05-07 23:39 | 8.11215 | 98.30548 | 84 ft | 141 kts | 84° |
| 2026-05-07 23:40 | 8.11302 | 98.31455 | 42 ft | 98 kts | 85° |
| 2026-05-07 23:40 | 8.11340 | 98.31873 | 58 ft | 38 kts | 84° |
| 2026-05-07 23:40 | 8.11362 | 98.32109 | 61 ft | 31 kts | 85° |
| 2026-05-07 23:40 | 8.11365 | 98.32314 | 83 ft | 28 kts | 102° |
| 2026-05-07 23:41 | 8.11327 | 98.32409 | 86 ft | 0 kts | 122° |
| 2026-05-07 23:41 | 8.11303 | 98.32423 | 87 ft | 8 kts | 153° |
| 2026-05-07 23:41 | 8.11260 | 98.32403 | 88 ft | 7 kts | 248° |
| 2026-05-07 23:42 | 8.11246 | 98.32310 | 84 ft | 20 kts | 264° |
| 2026-05-07 23:42 | 8.11228 | 98.32132 | 68 ft | 31 kts | 265° |
| 2026-05-07 23:42 | 8.11210 | 98.31935 | 61 ft | 30 kts | 264° |
| 2026-05-07 23:42 | 8.11191 | 98.31732 | 51 ft | 18 kts | 264° |
| 2026-05-07 23:43 | 8.11182 | 98.31637 | 47 ft | 16 kts | 264° |
| 2026-05-07 23:43 | 8.11170 | 98.31505 | 44 ft | 21 kts | 264° |
| 2026-05-07 23:43 | 8.11154 | 98.31343 | 39 ft | 25 kts | 264° |
| 2026-05-07 23:43 | 8.11136 | 98.31156 | 37 ft | 28 kts | 264° |
| 2026-05-07 23:44 | 8.11117 | 98.31000 | 36 ft | 20 kts | 255° |
| 2026-05-07 23:44 | 8.11083 | 98.30867 | 35 ft | 20 kts | 265° |
| 2026-05-07 23:44 | 8.11072 | 98.30742 | 35 ft | 17 kts | 264° |
| 2026-05-07 23:44 | 8.11060 | 98.30625 | 34 ft | 17 kts | 264° |
| 2026-05-07 23:45 | 8.11044 | 98.30515 | 34 ft | 14 kts | 247° |
| 2026-05-07 23:45 | 8.10979 | 98.30475 | 33 ft | 10 kts | 195° |
| 2026-05-07 23:45 | 8.10930 | 98.30483 | 33 ft | 4 kts | 120° |
| 2026-05-07 23:45 | 8.10915 | 98.30515 | 34 ft | 6 kts | 109° |
| 2026-05-07 23:46 | 8.10908 | 98.30538 | 34 ft | 0 kts | 107° |
| 2026-05-07 23:46 | 8.10908 | 98.30539 | 34 ft | 1 kts | 109° |
| 2026-05-07 23:46 | 8.10906 | 98.30545 | 34 ft | 0 kts | 106° |
| 2026-05-07 23:53 | 8.10905 | 98.30545 | 34 ft | 0 kts | 105° |